sensor_id;sensor_type;location;lat;lon;timestamp;temperature;humidity
27306;DHT22;14792;50.886;6.468;2023-05-07T00:02:24;14.10;99.90
27306;DHT22;14792;50.886;6.468;2023-05-07T00:05:26;14.10;99.90
27306;DHT22;14792;50.886;6.468;2023-05-07T00:08:27;14.10;99.90
27306;DHT22;14792;50.886;6.468;2023-05-07T00:11:29;14.10;99.90
27306;DHT22;14792;50.886;6.468;2023-05-07T00:14:31;14.10;99.90
27306;DHT22;14792;50.886;6.468;2023-05-07T00:17:32;14.10;99.90
27306;DHT22;14792;50.886;6.468;2023-05-07T00:20:34;14.10;99.90
27306;DHT22;14792;50.886;6.468;2023-05-07T00:23:35;14.00;99.90
27306;DHT22;14792;50.886;6.468;2023-05-07T00:26:37;14.00;99.90
27306;DHT22;14792;50.886;6.468;2023-05-07T00:29:38;14.00;99.90
27306;DHT22;14792;50.886;6.468;2023-05-07T00:32:40;14.00;99.90
27306;DHT22;14792;50.886;6.468;2023-05-07T00:35:42;14.00;99.90
27306;DHT22;14792;50.886;6.468;2023-05-07T00:38:43;14.00;99.90
27306;DHT22;14792;50.886;6.468;2023-05-07T00:41:45;14.00;99.90
27306;DHT22;14792;50.886;6.468;2023-05-07T00:44:46;13.90;99.90
27306;DHT22;14792;50.886;6.468;2023-05-07T00:47:48;14.00;99.90
27306;DHT22;14792;50.886;6.468;2023-05-07T00:50:50;14.00;99.90
27306;DHT22;14792;50.886;6.468;2023-05-07T00:53:51;14.00;99.90
27306;DHT22;14792;50.886;6.468;2023-05-07T00:56:53;14.00;99.90
27306;DHT22;14792;50.886;6.468;2023-05-07T00:59:54;14.00;99.90
27306;DHT22;14792;50.886;6.468;2023-05-07T01:02:56;14.00;99.90
27306;DHT22;14792;50.886;6.468;2023-05-07T01:05:58;14.00;99.90
27306;DHT22;14792;50.886;6.468;2023-05-07T01:08:59;14.00;99.90
27306;DHT22;14792;50.886;6.468;2023-05-07T01:12:01;14.00;99.90
27306;DHT22;14792;50.886;6.468;2023-05-07T01:15:03;14.00;99.90
27306;DHT22;14792;50.886;6.468;2023-05-07T01:18:04;14.00;99.90
27306;DHT22;14792;50.886;6.468;2023-05-07T01:21:05;14.00;99.90
27306;DHT22;14792;50.886;6.468;2023-05-07T01:24:07;14.00;99.90
27306;DHT22;14792;50.886;6.468;2023-05-07T01:27:09;14.00;99.90
27306;DHT22;14792;50.886;6.468;2023-05-07T01:30:10;14.00;99.90
27306;DHT22;14792;50.886;6.468;2023-05-07T01:33:13;14.00;99.90
27306;DHT22;14792;50.886;6.468;2023-05-07T01:36:13;14.00;99.90
27306;DHT22;14792;50.886;6.468;2023-05-07T01:39:15;14.00;99.90
27306;DHT22;14792;50.886;6.468;2023-05-07T01:42:17;14.00;99.90
27306;DHT22;14792;50.886;6.468;2023-05-07T01:45:18;14.00;99.90
27306;DHT22;14792;50.886;6.468;2023-05-07T01:48:20;14.00;99.90
27306;DHT22;14792;50.886;6.468;2023-05-07T01:51:21;14.00;99.90
27306;DHT22;14792;50.886;6.468;2023-05-07T01:54:26;13.90;99.90
27306;DHT22;14792;50.886;6.468;2023-05-07T01:57:30;13.90;99.90
27306;DHT22;14792;50.886;6.468;2023-05-07T02:00:32;13.90;99.90
27306;DHT22;14792;50.886;6.468;2023-05-07T02:03:33;13.80;99.90
27306;DHT22;14792;50.886;6.468;2023-05-07T02:06:35;13.90;99.90
27306;DHT22;14792;50.886;6.468;2023-05-07T02:09:36;13.80;99.90
27306;DHT22;14792;50.886;6.468;2023-05-07T02:12:38;13.80;99.90
27306;DHT22;14792;50.886;6.468;2023-05-07T02:15:40;13.80;99.90
27306;DHT22;14792;50.886;6.468;2023-05-07T02:18:41;13.80;99.90
27306;DHT22;14792;50.886;6.468;2023-05-07T02:21:43;13.80;99.90
27306;DHT22;14792;50.886;6.468;2023-05-07T02:24:45;13.80;99.90
27306;DHT22;14792;50.886;6.468;2023-05-07T02:27:46;13.80;99.90
27306;DHT22;14792;50.886;6.468;2023-05-07T02:30:48;13.80;99.90
27306;DHT22;14792;50.886;6.468;2023-05-07T02:33:49;13.70;99.90
27306;DHT22;14792;50.886;6.468;2023-05-07T02:36:51;13.70;99.90
27306;DHT22;14792;50.886;6.468;2023-05-07T02:39:52;13.70;99.90
27306;DHT22;14792;50.886;6.468;2023-05-07T02:42:54;13.60;99.90
27306;DHT22;14792;50.886;6.468;2023-05-07T02:46:05;13.60;99.90
27306;DHT22;14792;50.886;6.468;2023-05-07T02:49:06;13.50;99.90
27306;DHT22;14792;50.886;6.468;2023-05-07T02:52:08;13.50;99.90
27306;DHT22;14792;50.886;6.468;2023-05-07T02:55:10;13.50;99.90
27306;DHT22;14792;50.886;6.468;2023-05-07T02:58:12;13.40;99.90
27306;DHT22;14792;50.886;6.468;2023-05-07T03:01:13;13.50;99.90
27306;DHT22;14792;50.886;6.468;2023-05-07T03:04:15;13.50;99.90
27306;DHT22;14792;50.886;6.468;2023-05-07T03:07:16;13.40;99.90
27306;DHT22;14792;50.886;6.468;2023-05-07T03:10:19;13.40;99.90
27306;DHT22;14792;50.886;6.468;2023-05-07T03:13:20;13.50;99.90
27306;DHT22;14792;50.886;6.468;2023-05-07T03:16:22;13.50;99.90
27306;DHT22;14792;50.886;6.468;2023-05-07T03:19:23;13.50;99.90
27306;DHT22;14792;50.886;6.468;2023-05-07T03:22:25;13.50;99.90
27306;DHT22;14792;50.886;6.468;2023-05-07T03:25:27;13.50;99.90
27306;DHT22;14792;50.886;6.468;2023-05-07T03:28:28;13.50;99.90
27306;DHT22;14792;50.886;6.468;2023-05-07T03:31:30;13.50;99.90
27306;DHT22;14792;50.886;6.468;2023-05-07T03:34:31;13.50;99.90
27306;DHT22;14792;50.886;6.468;2023-05-07T03:37:33;13.50;99.90
27306;DHT22;14792;50.886;6.468;2023-05-07T03:40:35;13.40;99.90
27306;DHT22;14792;50.886;6.468;2023-05-07T03:43:37;13.40;99.90
27306;DHT22;14792;50.886;6.468;2023-05-07T03:46:39;13.40;99.90
27306;DHT22;14792;50.886;6.468;2023-05-07T03:49:40;13.50;99.90
27306;DHT22;14792;50.886;6.468;2023-05-07T03:52:42;13.40;99.90
27306;DHT22;14792;50.886;6.468;2023-05-07T03:55:43;13.40;99.90
27306;DHT22;14792;50.886;6.468;2023-05-07T03:58:45;13.40;99.90
27306;DHT22;14792;50.886;6.468;2023-05-07T04:01:47;13.50;99.90
27306;DHT22;14792;50.886;6.468;2023-05-07T04:04:48;13.50;99.90
27306;DHT22;14792;50.886;6.468;2023-05-07T04:07:50;13.50;99.90
27306;DHT22;14792;50.886;6.468;2023-05-07T04:10:56;13.40;99.90
27306;DHT22;14792;50.886;6.468;2023-05-07T04:13:57;13.40;99.90
27306;DHT22;14792;50.886;6.468;2023-05-07T04:16:59;13.40;99.90
27306;DHT22;14792;50.886;6.468;2023-05-07T04:20:01;13.40;99.90
27306;DHT22;14792;50.886;6.468;2023-05-07T04:23:03;13.50;99.90
27306;DHT22;14792;50.886;6.468;2023-05-07T04:26:05;13.40;99.90
27306;DHT22;14792;50.886;6.468;2023-05-07T04:29:06;13.50;99.90
27306;DHT22;14792;50.886;6.468;2023-05-07T04:32:08;13.40;99.90
27306;DHT22;14792;50.886;6.468;2023-05-07T04:35:09;13.50;99.90
27306;DHT22;14792;50.886;6.468;2023-05-07T04:38:11;13.50;99.90
27306;DHT22;14792;50.886;6.468;2023-05-07T04:41:13;13.50;99.90
27306;DHT22;14792;50.886;6.468;2023-05-07T04:44:15;13.50;99.90
27306;DHT22;14792;50.886;6.468;2023-05-07T04:47:16;13.50;99.90
27306;DHT22;14792;50.886;6.468;2023-05-07T04:50:18;13.50;99.90
27306;DHT22;14792;50.886;6.468;2023-05-07T04:53:20;13.50;99.90
27306;DHT22;14792;50.886;6.468;2023-05-07T04:56:21;13.50;99.90
27306;DHT22;14792;50.886;6.468;2023-05-07T04:59:23;13.50;99.90
27306;DHT22;14792;50.886;6.468;2023-05-07T05:02:25;13.50;99.90
27306;DHT22;14792;50.886;6.468;2023-05-07T05:05:26;13.40;99.90
27306;DHT22;14792;50.886;6.468;2023-05-07T05:08:29;13.50;99.90
27306;DHT22;14792;50.886;6.468;2023-05-07T05:11:30;13.50;99.90
27306;DHT22;14792;50.886;6.468;2023-05-07T05:14:32;13.60;99.90
27306;DHT22;14792;50.886;6.468;2023-05-07T05:17:34;13.60;99.90
27306;DHT22;14792;50.886;6.468;2023-05-07T05:20:36;13.60;99.90
27306;DHT22;14792;50.886;6.468;2023-05-07T05:23:37;13.60;99.90
27306;DHT22;14792;50.886;6.468;2023-05-07T05:26:39;13.70;99.90
27306;DHT22;14792;50.886;6.468;2023-05-07T05:29:42;13.80;99.90
27306;DHT22;14792;50.886;6.468;2023-05-07T05:32:44;13.80;99.90
27306;DHT22;14792;50.886;6.468;2023-05-07T05:35:46;13.90;99.90
27306;DHT22;14792;50.886;6.468;2023-05-07T05:38:47;14.00;99.90
27306;DHT22;14792;50.886;6.468;2023-05-07T05:41:49;13.90;99.90
27306;DHT22;14792;50.886;6.468;2023-05-07T05:44:51;14.00;99.90
27306;DHT22;14792;50.886;6.468;2023-05-07T05:47:55;14.10;99.90
27306;DHT22;14792;50.886;6.468;2023-05-07T05:50:55;14.20;99.90
27306;DHT22;14792;50.886;6.468;2023-05-07T05:53:56;14.30;99.90
27306;DHT22;14792;50.886;6.468;2023-05-07T05:56:58;14.40;99.90
27306;DHT22;14792;50.886;6.468;2023-05-07T06:00:00;14.40;99.90
27306;DHT22;14792;50.886;6.468;2023-05-07T06:03:01;14.40;99.90
27306;DHT22;14792;50.886;6.468;2023-05-07T06:06:03;14.50;99.90
27306;DHT22;14792;50.886;6.468;2023-05-07T06:09:05;14.50;99.90
27306;DHT22;14792;50.886;6.468;2023-05-07T06:12:06;14.50;99.90
27306;DHT22;14792;50.886;6.468;2023-05-07T06:15:09;14.60;99.90
27306;DHT22;14792;50.886;6.468;2023-05-07T06:18:10;14.60;99.90
27306;DHT22;14792;50.886;6.468;2023-05-07T06:21:13;14.70;99.90
27306;DHT22;14792;50.886;6.468;2023-05-07T06:24:13;14.70;99.90
27306;DHT22;14792;50.886;6.468;2023-05-07T06:27:15;14.80;99.90
27306;DHT22;14792;50.886;6.468;2023-05-07T06:30:16;14.90;99.90
27306;DHT22;14792;50.886;6.468;2023-05-07T06:33:18;14.90;99.90
27306;DHT22;14792;50.886;6.468;2023-05-07T06:36:20;15.00;99.90
27306;DHT22;14792;50.886;6.468;2023-05-07T06:39:21;15.10;99.90
27306;DHT22;14792;50.886;6.468;2023-05-07T06:42:23;15.30;99.90
27306;DHT22;14792;50.886;6.468;2023-05-07T06:45:24;15.40;99.90
27306;DHT22;14792;50.886;6.468;2023-05-07T06:48:27;15.60;99.90
27306;DHT22;14792;50.886;6.468;2023-05-07T06:51:28;15.60;99.90
27306;DHT22;14792;50.886;6.468;2023-05-07T06:54:30;15.70;99.90
27306;DHT22;14792;50.886;6.468;2023-05-07T06:57:32;15.80;99.90
27306;DHT22;14792;50.886;6.468;2023-05-07T07:00:33;15.80;99.90
27306;DHT22;14792;50.886;6.468;2023-05-07T07:03:35;15.90;99.90
27306;DHT22;14792;50.886;6.468;2023-05-07T07:06:37;16.00;99.90
27306;DHT22;14792;50.886;6.468;2023-05-07T07:09:38;16.10;99.90
27306;DHT22;14792;50.886;6.468;2023-05-07T07:12:40;16.10;99.90
27306;DHT22;14792;50.886;6.468;2023-05-07T07:15:42;16.10;99.90
27306;DHT22;14792;50.886;6.468;2023-05-07T07:18:43;16.20;99.90
27306;DHT22;14792;50.886;6.468;2023-05-07T07:21:45;16.30;99.90
27306;DHT22;14792;50.886;6.468;2023-05-07T07:24:46;16.40;99.90
27306;DHT22;14792;50.886;6.468;2023-05-07T07:27:48;16.50;99.90
27306;DHT22;14792;50.886;6.468;2023-05-07T07:30:50;16.60;99.90
27306;DHT22;14792;50.886;6.468;2023-05-07T07:33:51;16.70;99.90
27306;DHT22;14792;50.886;6.468;2023-05-07T07:36:53;16.80;99.90
27306;DHT22;14792;50.886;6.468;2023-05-07T07:39:55;16.90;99.90
27306;DHT22;14792;50.886;6.468;2023-05-07T07:42:57;17.10;99.90
27306;DHT22;14792;50.886;6.468;2023-05-07T07:45:58;17.10;99.90
27306;DHT22;14792;50.886;6.468;2023-05-07T07:49:00;17.30;99.90
27306;DHT22;14792;50.886;6.468;2023-05-07T07:52:01;17.40;99.90
27306;DHT22;14792;50.886;6.468;2023-05-07T07:55:04;17.20;99.90
27306;DHT22;14792;50.886;6.468;2023-05-07T07:58:05;17.60;99.90
27306;DHT22;14792;50.886;6.468;2023-05-07T08:01:07;17.80;99.90
27306;DHT22;14792;50.886;6.468;2023-05-07T08:04:08;17.90;99.90
27306;DHT22;14792;50.886;6.468;2023-05-07T08:07:10;18.20;99.90
27306;DHT22;14792;50.886;6.468;2023-05-07T08:10:12;18.20;99.90
27306;DHT22;14792;50.886;6.468;2023-05-07T08:13:14;18.40;99.90
27306;DHT22;14792;50.886;6.468;2023-05-07T08:16:16;18.40;99.90
27306;DHT22;14792;50.886;6.468;2023-05-07T08:19:18;18.60;99.90
27306;DHT22;14792;50.886;6.468;2023-05-07T08:22:19;18.70;99.90
27306;DHT22;14792;50.886;6.468;2023-05-07T08:25:21;18.80;99.90
27306;DHT22;14792;50.886;6.468;2023-05-07T08:28:23;18.80;99.90
27306;DHT22;14792;50.886;6.468;2023-05-07T08:31:24;18.90;99.90
27306;DHT22;14792;50.886;6.468;2023-05-07T08:34:26;19.10;99.90
27306;DHT22;14792;50.886;6.468;2023-05-07T08:37:27;19.30;99.90
27306;DHT22;14792;50.886;6.468;2023-05-07T08:40:29;19.50;99.90
27306;DHT22;14792;50.886;6.468;2023-05-07T08:43:31;19.50;99.90
27306;DHT22;14792;50.886;6.468;2023-05-07T08:46:32;19.70;99.90
27306;DHT22;14792;50.886;6.468;2023-05-07T08:49:34;19.90;99.90
27306;DHT22;14792;50.886;6.468;2023-05-07T08:52:35;20.20;99.90
27306;DHT22;14792;50.886;6.468;2023-05-07T08:55:37;20.00;99.90
27306;DHT22;14792;50.886;6.468;2023-05-07T08:58:38;19.90;99.90
27306;DHT22;14792;50.886;6.468;2023-05-07T09:01:40;20.10;99.90
27306;DHT22;14792;50.886;6.468;2023-05-07T09:04:42;20.20;99.90
27306;DHT22;14792;50.886;6.468;2023-05-07T09:07:43;20.00;99.90
27306;DHT22;14792;50.886;6.468;2023-05-07T09:10:45;20.30;99.90
27306;DHT22;14792;50.886;6.468;2023-05-07T09:13:46;20.60;99.90
27306;DHT22;14792;50.886;6.468;2023-05-07T09:16:48;21.00;99.90
27306;DHT22;14792;50.886;6.468;2023-05-07T09:19:50;21.10;99.90
27306;DHT22;14792;50.886;6.468;2023-05-07T09:22:52;21.10;99.90
27306;DHT22;14792;50.886;6.468;2023-05-07T09:25:54;21.60;99.90
27306;DHT22;14792;50.886;6.468;2023-05-07T09:28:55;21.70;99.90
27306;DHT22;14792;50.886;6.468;2023-05-07T09:31:56;22.20;99.90
27306;DHT22;14792;50.886;6.468;2023-05-07T09:34:58;22.20;99.90
27306;DHT22;14792;50.886;6.468;2023-05-07T09:38:00;22.40;99.90
27306;DHT22;14792;50.886;6.468;2023-05-07T09:41:07;22.60;99.90
27306;DHT22;14792;50.886;6.468;2023-05-07T09:44:08;22.70;99.90
27306;DHT22;14792;50.886;6.468;2023-05-07T09:47:10;23.00;99.90
27306;DHT22;14792;50.886;6.468;2023-05-07T09:50:11;23.20;99.90
27306;DHT22;14792;50.886;6.468;2023-05-07T09:53:13;23.20;99.90
27306;DHT22;14792;50.886;6.468;2023-05-07T09:56:15;23.20;99.90
27306;DHT22;14792;50.886;6.468;2023-05-07T09:59:16;23.10;99.90
27306;DHT22;14792;50.886;6.468;2023-05-07T10:02:18;22.90;99.90
27306;DHT22;14792;50.886;6.468;2023-05-07T10:05:20;22.70;99.90
27306;DHT22;14792;50.886;6.468;2023-05-07T10:08:21;22.50;99.90
27306;DHT22;14792;50.886;6.468;2023-05-07T10:11:23;22.50;99.90
27306;DHT22;14792;50.886;6.468;2023-05-07T10:14:24;22.80;99.90
27306;DHT22;14792;50.886;6.468;2023-05-07T10:17:26;22.60;99.90
27306;DHT22;14792;50.886;6.468;2023-05-07T10:20:27;23.00;99.90
27306;DHT22;14792;50.886;6.468;2023-05-07T10:23:29;23.00;99.90
27306;DHT22;14792;50.886;6.468;2023-05-07T10:26:31;22.90;99.90
27306;DHT22;14792;50.886;6.468;2023-05-07T10:32:47;23.30;99.90
27306;DHT22;14792;50.886;6.468;2023-05-07T10:35:47;23.60;99.90
27306;DHT22;14792;50.886;6.468;2023-05-07T10:38:50;23.50;99.90
27306;DHT22;14792;50.886;6.468;2023-05-07T10:41:51;23.30;99.90
27306;DHT22;14792;50.886;6.468;2023-05-07T10:44:53;23.30;99.90
27306;DHT22;14792;50.886;6.468;2023-05-07T10:51:21;22.80;99.90
27306;DHT22;14792;50.886;6.468;2023-05-07T10:54:22;22.90;99.90
27306;DHT22;14792;50.886;6.468;2023-05-07T10:57:35;22.80;99.90
27306;DHT22;14792;50.886;6.468;2023-05-07T11:04:12;22.70;99.90
27306;DHT22;14792;50.886;6.468;2023-05-07T11:06:40;22.70;99.90
27306;DHT22;14792;50.886;6.468;2023-05-07T11:09:57;22.60;99.90
27306;DHT22;14792;50.886;6.468;2023-05-07T11:12:58;22.40;99.90
27306;DHT22;14792;50.886;6.468;2023-05-07T11:15:59;22.40;99.90
27306;DHT22;14792;50.886;6.468;2023-05-07T11:19:01;22.50;99.90
27306;DHT22;14792;50.886;6.468;2023-05-07T11:22:03;22.60;99.90
27306;DHT22;14792;50.886;6.468;2023-05-07T11:25:05;22.60;99.90
27306;DHT22;14792;50.886;6.468;2023-05-07T11:28:09;22.40;99.90
27306;DHT22;14792;50.886;6.468;2023-05-07T11:31:10;22.60;99.90
27306;DHT22;14792;50.886;6.468;2023-05-07T11:34:12;22.20;99.90
27306;DHT22;14792;50.886;6.468;2023-05-07T11:37:16;21.70;99.90
27306;DHT22;14792;50.886;6.468;2023-05-07T11:40:15;21.60;99.90
27306;DHT22;14792;50.886;6.468;2023-05-07T11:43:17;21.80;99.90
27306;DHT22;14792;50.886;6.468;2023-05-07T11:46:18;22.00;99.90
27306;DHT22;14792;50.886;6.468;2023-05-07T11:49:20;22.10;99.90
27306;DHT22;14792;50.886;6.468;2023-05-07T11:52:22;21.90;99.90
27306;DHT22;14792;50.886;6.468;2023-05-07T11:55:23;21.60;99.90
27306;DHT22;14792;50.886;6.468;2023-05-07T11:58:25;21.60;99.90
27306;DHT22;14792;50.886;6.468;2023-05-07T12:01:29;21.40;99.90
27306;DHT22;14792;50.886;6.468;2023-05-07T12:04:31;21.40;99.90
27306;DHT22;14792;50.886;6.468;2023-05-07T12:07:36;21.30;99.90
27306;DHT22;14792;50.886;6.468;2023-05-07T12:10:34;21.10;99.90
27306;DHT22;14792;50.886;6.468;2023-05-07T12:13:35;21.00;99.90
27306;DHT22;14792;50.886;6.468;2023-05-07T12:16:39;20.80;99.90
27306;DHT22;14792;50.886;6.468;2023-05-07T12:19:40;21.00;99.90
27306;DHT22;14792;50.886;6.468;2023-05-07T12:22:41;20.80;99.90
27306;DHT22;14792;50.886;6.468;2023-05-07T12:25:43;20.50;99.90
27306;DHT22;14792;50.886;6.468;2023-05-07T12:28:44;20.30;99.90
27306;DHT22;14792;50.886;6.468;2023-05-07T12:31:46;20.30;99.90
27306;DHT22;14792;50.886;6.468;2023-05-07T12:34:51;20.20;99.90
27306;DHT22;14792;50.886;6.468;2023-05-07T12:37:55;20.10;99.90
27306;DHT22;14792;50.886;6.468;2023-05-07T12:40:57;20.00;99.90
27306;DHT22;14792;50.886;6.468;2023-05-07T12:43:58;19.80;99.90
27306;DHT22;14792;50.886;6.468;2023-05-07T12:47:03;19.40;99.90
27306;DHT22;14792;50.886;6.468;2023-05-07T12:50:07;19.00;99.90
27306;DHT22;14792;50.886;6.468;2023-05-07T12:53:09;18.60;99.90
27306;DHT22;14792;50.886;6.468;2023-05-07T12:56:10;18.30;99.90
27306;DHT22;14792;50.886;6.468;2023-05-07T12:59:12;18.20;99.90
27306;DHT22;14792;50.886;6.468;2023-05-07T13:02:13;18.20;99.90
27306;DHT22;14792;50.886;6.468;2023-05-07T13:05:15;17.90;99.90
27306;DHT22;14792;50.886;6.468;2023-05-07T13:08:23;18.00;99.90
27306;DHT22;14792;50.886;6.468;2023-05-07T13:11:24;17.90;99.90
27306;DHT22;14792;50.886;6.468;2023-05-07T13:14:26;17.80;99.90
27306;DHT22;14792;50.886;6.468;2023-05-07T13:17:28;17.80;99.90
27306;DHT22;14792;50.886;6.468;2023-05-07T13:20:30;18.00;99.90
27306;DHT22;14792;50.886;6.468;2023-05-07T13:23:31;18.20;99.90
27306;DHT22;14792;50.886;6.468;2023-05-07T13:26:33;18.20;99.90
27306;DHT22;14792;50.886;6.468;2023-05-07T13:29:35;18.20;99.90
27306;DHT22;14792;50.886;6.468;2023-05-07T13:32:37;18.40;99.90
27306;DHT22;14792;50.886;6.468;2023-05-07T13:35:38;18.40;99.90
27306;DHT22;14792;50.886;6.468;2023-05-07T13:38:40;18.40;99.90
27306;DHT22;14792;50.886;6.468;2023-05-07T13:41:41;18.40;99.90
27306;DHT22;14792;50.886;6.468;2023-05-07T13:44:44;18.40;99.90
27306;DHT22;14792;50.886;6.468;2023-05-07T13:47:45;18.50;99.90
27306;DHT22;14792;50.886;6.468;2023-05-07T13:50:46;18.50;99.90
27306;DHT22;14792;50.886;6.468;2023-05-07T13:53:48;18.40;99.90
27306;DHT22;14792;50.886;6.468;2023-05-07T13:56:50;18.50;99.90
27306;DHT22;14792;50.886;6.468;2023-05-07T13:59:51;18.70;99.90
27306;DHT22;14792;50.886;6.468;2023-05-07T14:02:53;18.90;99.90
27306;DHT22;14792;50.886;6.468;2023-05-07T14:05:55;18.90;99.90
27306;DHT22;14792;50.886;6.468;2023-05-07T14:08:57;19.00;99.90
27306;DHT22;14792;50.886;6.468;2023-05-07T14:11:58;18.90;99.90
27306;DHT22;14792;50.886;6.468;2023-05-07T14:14:59;18.90;99.90
27306;DHT22;14792;50.886;6.468;2023-05-07T14:18:01;19.00;99.90
27306;DHT22;14792;50.886;6.468;2023-05-07T14:21:03;19.10;99.90
27306;DHT22;14792;50.886;6.468;2023-05-07T14:24:06;19.00;99.90
27306;DHT22;14792;50.886;6.468;2023-05-07T14:27:06;18.90;99.90
27306;DHT22;14792;50.886;6.468;2023-05-07T14:30:08;18.90;99.90
27306;DHT22;14792;50.886;6.468;2023-05-07T14:33:10;19.00;99.90
27306;DHT22;14792;50.886;6.468;2023-05-07T14:36:11;19.00;99.90
27306;DHT22;14792;50.886;6.468;2023-05-07T14:39:13;19.20;99.90
27306;DHT22;14792;50.886;6.468;2023-05-07T14:42:15;19.20;99.90
27306;DHT22;14792;50.886;6.468;2023-05-07T14:45:16;19.30;99.90
27306;DHT22;14792;50.886;6.468;2023-05-07T14:48:18;19.20;99.90
27306;DHT22;14792;50.886;6.468;2023-05-07T14:51:20;19.20;99.90
27306;DHT22;14792;50.886;6.468;2023-05-07T14:54:21;19.20;99.90
27306;DHT22;14792;50.886;6.468;2023-05-07T14:57:23;19.20;99.90
27306;DHT22;14792;50.886;6.468;2023-05-07T15:00:24;19.20;99.90
27306;DHT22;14792;50.886;6.468;2023-05-07T15:03:26;19.20;99.90
27306;DHT22;14792;50.886;6.468;2023-05-07T15:06:28;19.10;99.90
27306;DHT22;14792;50.886;6.468;2023-05-07T15:09:29;19.10;99.90
27306;DHT22;14792;50.886;6.468;2023-05-07T15:12:31;19.10;99.90
27306;DHT22;14792;50.886;6.468;2023-05-07T15:15:33;19.10;99.90
27306;DHT22;14792;50.886;6.468;2023-05-07T15:18:35;19.10;99.90
27306;DHT22;14792;50.886;6.468;2023-05-07T15:21:36;19.20;99.90
27306;DHT22;14792;50.886;6.468;2023-05-07T15:24:38;19.20;99.90
27306;DHT22;14792;50.886;6.468;2023-05-07T15:27:39;19.20;99.90
27306;DHT22;14792;50.886;6.468;2023-05-07T15:30:41;19.20;99.90
27306;DHT22;14792;50.886;6.468;2023-05-07T15:33:43;19.30;99.90
27306;DHT22;14792;50.886;6.468;2023-05-07T15:36:44;19.30;99.90
27306;DHT22;14792;50.886;6.468;2023-05-07T15:39:46;19.30;99.90
27306;DHT22;14792;50.886;6.468;2023-05-07T15:42:48;19.30;99.90
27306;DHT22;14792;50.886;6.468;2023-05-07T15:45:49;19.20;99.90
27306;DHT22;14792;50.886;6.468;2023-05-07T15:48:51;19.20;99.90
27306;DHT22;14792;50.886;6.468;2023-05-07T15:51:53;19.20;99.90
27306;DHT22;14792;50.886;6.468;2023-05-07T15:54:56;19.20;99.90
27306;DHT22;14792;50.886;6.468;2023-05-07T15:57:57;19.20;99.90
27306;DHT22;14792;50.886;6.468;2023-05-07T16:00:59;19.20;99.90
27306;DHT22;14792;50.886;6.468;2023-05-07T16:04:00;19.20;99.90
27306;DHT22;14792;50.886;6.468;2023-05-07T16:07:02;19.20;99.90
27306;DHT22;14792;50.886;6.468;2023-05-07T16:10:04;19.10;99.90
27306;DHT22;14792;50.886;6.468;2023-05-07T16:13:06;19.10;99.90
27306;DHT22;14792;50.886;6.468;2023-05-07T16:16:08;19.10;99.90
27306;DHT22;14792;50.886;6.468;2023-05-07T16:19:09;18.90;99.90
27306;DHT22;14792;50.886;6.468;2023-05-07T16:22:11;18.90;99.90
27306;DHT22;14792;50.886;6.468;2023-05-07T16:25:13;18.80;99.90
27306;DHT22;14792;50.886;6.468;2023-05-07T16:28:14;18.80;99.90
27306;DHT22;14792;50.886;6.468;2023-05-07T16:31:16;18.80;99.90
27306;DHT22;14792;50.886;6.468;2023-05-07T16:34:18;18.80;99.90
27306;DHT22;14792;50.886;6.468;2023-05-07T16:37:19;18.90;99.90
27306;DHT22;14792;50.886;6.468;2023-05-07T16:40:21;18.80;99.90
27306;DHT22;14792;50.886;6.468;2023-05-07T16:43:23;18.70;99.90
27306;DHT22;14792;50.886;6.468;2023-05-07T16:46:24;18.60;99.90
27306;DHT22;14792;50.886;6.468;2023-05-07T16:49:26;18.50;99.90
27306;DHT22;14792;50.886;6.468;2023-05-07T16:52:28;18.50;99.90
27306;DHT22;14792;50.886;6.468;2023-05-07T16:55:30;18.40;99.90
27306;DHT22;14792;50.886;6.468;2023-05-07T16:58:32;18.40;99.90
27306;DHT22;14792;50.886;6.468;2023-05-07T17:01:34;18.30;99.90
27306;DHT22;14792;50.886;6.468;2023-05-07T17:04:36;18.30;99.90
27306;DHT22;14792;50.886;6.468;2023-05-07T17:07:37;18.30;99.90
27306;DHT22;14792;50.886;6.468;2023-05-07T17:10:39;18.30;99.90
27306;DHT22;14792;50.886;6.468;2023-05-07T17:13:41;18.30;99.90
27306;DHT22;14792;50.886;6.468;2023-05-07T17:16:42;18.30;99.90
27306;DHT22;14792;50.886;6.468;2023-05-07T17:19:44;18.20;99.90
27306;DHT22;14792;50.886;6.468;2023-05-07T17:22:46;18.20;99.90
27306;DHT22;14792;50.886;6.468;2023-05-07T17:25:47;18.20;99.90
27306;DHT22;14792;50.886;6.468;2023-05-07T17:28:49;18.20;99.90
27306;DHT22;14792;50.886;6.468;2023-05-07T17:31:51;18.10;99.90
27306;DHT22;14792;50.886;6.468;2023-05-07T17:34:52;18.10;99.90
27306;DHT22;14792;50.886;6.468;2023-05-07T17:37:54;18.00;99.90
27306;DHT22;14792;50.886;6.468;2023-05-07T17:41:00;18.00;99.90
27306;DHT22;14792;50.886;6.468;2023-05-07T17:43:58;18.00;99.90
27306;DHT22;14792;50.886;6.468;2023-05-07T17:46:59;18.00;99.90
27306;DHT22;14792;50.886;6.468;2023-05-07T17:50:01;18.00;99.90
27306;DHT22;14792;50.886;6.468;2023-05-07T17:53:03;18.10;99.90
27306;DHT22;14792;50.886;6.468;2023-05-07T17:56:04;18.20;99.90
27306;DHT22;14792;50.886;6.468;2023-05-07T17:59:06;18.60;99.90
27306;DHT22;14792;50.886;6.468;2023-05-07T18:02:08;18.80;99.90
27306;DHT22;14792;50.886;6.468;2023-05-07T18:05:10;18.70;99.90
27306;DHT22;14792;50.886;6.468;2023-05-07T18:08:11;18.80;99.90
27306;DHT22;14792;50.886;6.468;2023-05-07T18:11:13;18.80;99.90
27306;DHT22;14792;50.886;6.468;2023-05-07T18:14:15;18.40;99.90
27306;DHT22;14792;50.886;6.468;2023-05-07T18:17:16;18.40;99.90
27306;DHT22;14792;50.886;6.468;2023-05-07T18:20:18;18.50;99.90
27306;DHT22;14792;50.886;6.468;2023-05-07T18:23:20;18.60;99.90
27306;DHT22;14792;50.886;6.468;2023-05-07T18:26:21;18.60;99.90
27306;DHT22;14792;50.886;6.468;2023-05-07T18:29:23;18.70;99.90
27306;DHT22;14792;50.886;6.468;2023-05-07T18:32:25;18.60;99.90
27306;DHT22;14792;50.886;6.468;2023-05-07T18:35:26;18.70;99.90
27306;DHT22;14792;50.886;6.468;2023-05-07T18:38:28;18.50;99.90
27306;DHT22;14792;50.886;6.468;2023-05-07T18:41:30;18.40;99.90
27306;DHT22;14792;50.886;6.468;2023-05-07T18:44:31;18.40;99.90
27306;DHT22;14792;50.886;6.468;2023-05-07T18:47:33;18.40;99.90
27306;DHT22;14792;50.886;6.468;2023-05-07T18:50:35;18.30;99.90
27306;DHT22;14792;50.886;6.468;2023-05-07T18:53:40;18.20;99.90
27306;DHT22;14792;50.886;6.468;2023-05-07T18:56:41;18.10;99.90
27306;DHT22;14792;50.886;6.468;2023-05-07T18:59:43;18.10;99.90
27306;DHT22;14792;50.886;6.468;2023-05-07T19:02:45;18.10;99.90
27306;DHT22;14792;50.886;6.468;2023-05-07T19:05:46;18.00;99.90
27306;DHT22;14792;50.886;6.468;2023-05-07T19:08:48;18.10;99.90
27306;DHT22;14792;50.886;6.468;2023-05-07T19:11:49;18.20;99.90
27306;DHT22;14792;50.886;6.468;2023-05-07T19:14:51;18.30;99.90
27306;DHT22;14792;50.886;6.468;2023-05-07T19:17:53;18.30;99.90